Horizon City, Texas
Current Conditions -  °F | °C
As of 8:43 PM on Monday 20 Oct 2014 (Local Time) from MMCS Reporting Station
Broken Clouds Broken Clouds  
Wind Chill: 61°   Ceiling: 9000
Heat Index: 61°   Visibility: 10mi
Dew Point: 55°   Wind: 9mph
Humidity: 82%   Direction: 240°WSW
Pressure: 30.03"   Gusts: NA
Location:  31.6697°N, 106.14°W
Report Text: MMCS 210243Z 24008KT 10SM SCT050 BKN090 16/13 A3003 RMK SLP094 52016 957 8/530
Loading
Personal Weather Stations






























Interactive Weather Map
Tropical Storm Tracking
New forecast layout! Learn more

10-Day Weather Forecast

Advertisements
Track Severe Weather on mobile